Flight Track Log - Related Links

Times and Time Zones

All times are in EDT time to prevent confusion due to time zone crossing. See the ASQ4179 flight status page for this flight to view local times or setup timezone preferences in your user account.

Time Position Orientation Groundspeed Altitude Reporting Facility
EDT Latitude Longitude Course Direction KTS MPH feet Rate Location/Type
Tue 09:24:50 AM 29.9550 -95.3394 90° East 154 177 800  Level Houston Center
Tue 09:25:45 AM 29.9283 -95.2994 128° Southeast 190 219 2,000 1,448 Climbing Houston Center
Tue 09:26:46 AM 29.8842 -95.2325 127° Southeast 259 298 3,600 1,820 Climbing Houston Center
Tue 09:27:00 AM 29.9834 -94.9295 90° East  Level FlightAware Approximate
Tue 09:27:47 AM 29.8422 -95.1628 125° Southeast 267 307 5,700  Level Houston Center
Tue 09:28:00 AM 29.9834 -94.7949 90° East  Level FlightAware Approximate
Tue 09:28:48 AM 29.8178 -95.0817 109° East 281 323 7,800  Level Houston Center
Tue 09:29:00 AM 29.9833 -94.6603 90° East  Level FlightAware Approximate
Tue 09:30:00 AM 29.9834 -94.5257 90° East  Level FlightAware Approximate
Tue 09:30:16 AM 29.8444 -94.9678 75° East 280 322 10,300  Level Houston Center
Tue 09:31:18 AM 29.8672 -94.8703 75° East 305 351 11,000 878 Climbing Houston Center
Tue 09:32:19 AM 29.8972 -94.7381 75° East 348 400 12,100 1,073 Climbing Houston Center
Tue 09:33:21 AM 29.9228 -94.6244 75° East 361 415 13,200 1,065 Climbing Houston Center
Tue 09:34:23 AM 29.9500 -94.5086 75° East 371 427 14,300 1,016 Climbing Houston Center
Tue 09:35:25 AM 29.9806 -94.3792 75° East 379 436 15,300 871 Climbing Houston Center
Tue 09:36:27 AM 30.0044 -94.2581 77° East 385 443 16,100 878 Climbing Houston Center
Tue 09:37:28 AM 30.0186 -94.1303 83° East 397 457 17,100 829 Climbing Houston Center
Tue 09:38:30 AM 30.0336 -94.0025 82° East 403 464 17,800 726 Climbing Houston Center
Tue 09:39:32 AM 30.0503 -93.8731 82° East 408 470 18,600 871 Climbing Houston Center
Tue 09:40:34 AM 30.0656 -93.7425 82° East 412 474 19,600 968 Climbing Houston Center
Tue 09:41:36 AM 30.0839 -93.5847 82° East 418 481 20,600 919 Climbing Houston Center
Tue 09:42:38 AM 30.0989 -93.4528 82° East 421 484 21,500 871 Climbing Houston Center
Tue 09:43:40 AM 30.1147 -93.3192 82° East 426 490 22,400 823 Climbing Houston Center
Tue 09:44:42 AM 30.1311 -93.1853 82° East 428 493 23,200 829 Climbing Houston Center
Tue 09:45:43 AM 30.1503 -93.0497 81° East 430 495 24,100 927 Climbing Houston Center
Tue 09:46:45 AM 30.1828 -92.8892 77° East 430 495 25,100 919 Climbing Houston Center
Tue 09:47:47 AM 30.2111 -92.7547 76° East 432 497 26,000 871 Climbing Houston Center
Tue 09:48:49 AM 30.2369 -92.6186 78° East 434 499 26,900 919 Climbing Houston Center
Tue 09:49:51 AM 30.2631 -92.4833 77° East 434 499 27,900 871 Climbing Houston Center
Tue 09:50:53 AM 30.2892 -92.3489 77° East 432 497 28,700 919 Climbing Houston Center
Tue 09:51:55 AM 30.3147 -92.2050 78° East 433 498 29,800 1,016 Climbing Houston Center
Tue 09:52:57 AM 30.3400 -92.0706 78° East 432 497 30,800 968 Climbing Houston Center
Tue 09:53:59 AM 30.3708 -91.9081 78° East 433 498 31,800 968 Climbing Houston Center
Tue 09:55:01 AM 30.3972 -91.7714 77° East 438 504 32,800 871 Climbing Houston Center
Tue 09:56:03 AM 30.4203 -91.6469 78° East 435 501 33,600 871 Climbing Houston Center
Tue 09:57:05 AM 30.4464 -91.5125 77° East 430 495 34,600 677 Climbing Houston Center
Tue 09:58:07 AM 30.4747 -91.3503 79° East 429 494 35,000 194 Climbing Houston Center
Tue 09:59:09 AM 30.5408 -91.2247 59° Northeast 466 536 35,000  Level Houston Center
Tue 10:00:11 AM 30.6297 -91.1097 48° Northeast 477 549 35,000  Level Houston Center
Tue 10:01:13 AM 30.7208 -90.9922 48° Northeast 484 557 35,000  Level Houston Center
Tue 10:02:15 AM 30.8167 -90.8700 48° Northeast 504 580 35,000  Level Houston Center
Tue 10:03:17 AM 30.9114 -90.7483 48° Northeast 505 581 35,000  Level Houston Center
Tue 10:04:19 AM 31.0056 -90.6275 48° Northeast 503 579 35,000  Level Houston Center
Tue 10:05:20 AM 31.1181 -90.4811 48° Northeast 502 578 35,000  Level Houston Center
Tue 10:06:22 AM 31.2103 -90.3600 48° Northeast 499 574 35,000  Level Houston Center
Tue 10:07:24 AM 31.3039 -90.2383 48° Northeast 500 575 35,000  Level Houston Center
Tue 10:08:26 AM 31.3972 -90.1169 48° Northeast 501 577 35,000  Level Houston Center
Tue 10:09:28 AM 31.4906 -89.9931 49° Northeast 503 579 35,000  Level Houston Center
Tue 10:10:30 AM 31.5844 -89.8689 48° Northeast 506 582 35,000  Level Houston Center
Tue 10:11:32 AM 31.6806 -89.7081 55° Northeast 503 579 35,000  Level Houston Center
Tue 10:12:34 AM 31.7403 -89.5592 65° Northeast 504 580 35,000  Level Houston Center
Tue 10:13:36 AM 31.7925 -89.4247 65° Northeast 502 578 35,000  Level Houston Center
Tue 10:14:38 AM 31.8517 -89.2764 65° Northeast 501 577 35,000  Level Houston Center
Tue 10:15:38 AM 31.9122 -89.1192 66° East 494 568 35,000  Level Memphis Center
Tue 10:16:38 AM 31.9811 -88.9442 65° Northeast 508 585 35,000  Level Memphis Center
Tue 10:17:38 AM 32.0419 -88.7961 64° Northeast 508 585 35,000  Level Memphis Center
Tue 10:19:16 AM 32.1336 -88.5589 65° Northeast 507 583 35,000  Level Atlanta Center
Tue 10:20:16 AM 32.1933 -88.4050 65° Northeast 502 578 35,000  Level Atlanta Center
Tue 10:21:16 AM 32.2506 -88.2556 66° East 502 578 35,000  Level Atlanta Center
Tue 10:22:16 AM 32.3033 -88.1181 66° East 502 578 35,000  Level Atlanta Center
Tue 10:23:16 AM 32.3625 -87.9658 65° Northeast 502 578 35,000  Level Atlanta Center
Tue 10:24:16 AM 32.4194 -87.8133 66° East 507 583 35,000  Level Atlanta Center
Tue 10:25:16 AM 32.4831 -87.6436 66° East 507 583 35,000  Level Atlanta Center
Tue 10:26:16 AM 32.5394 -87.4883 67° East 512 589 35,000  Level Atlanta Center
Tue 10:27:16 AM 32.5939 -87.3350 67° East 512 589 35,000  Level Atlanta Center
Tue 10:28:16 AM 32.6564 -87.1794 64° Northeast 506 582 35,000  Level Atlanta Center
Tue 10:29:16 AM 32.7103 -87.0283 67° East 506 582 35,000  Level Atlanta Center
Tue 10:30:16 AM 32.7658 -86.8772 66° East 506 582 35,000  Level Atlanta Center
Tue 10:31:16 AM 32.8214 -86.7281 66° East 501 577 35,000  Level Atlanta Center
Tue 10:32:16 AM 32.8769 -86.5789 66° East 496 571 35,000  Level Atlanta Center
Tue 10:33:16 AM 32.9322 -86.4247 67° East 500 575 35,000  Level Atlanta Center
Tue 10:34:16 AM 32.9850 -86.2750 67° East 488 562 35,000  Level Atlanta Center
Tue 10:35:16 AM 33.0333 -86.1450 66° East 484 557 35,000  Level Atlanta Center
Tue 10:36:16 AM 33.0881 -85.9850 68° East 490 564 35,000  Level Atlanta Center
Tue 10:37:16 AM 33.1403 -85.8350 67° East 489 563 35,000  Level Atlanta Center
Tue 10:38:16 AM 33.1947 -85.6822 67° East 495 570 35,000  Level Atlanta Center
Tue 10:39:16 AM 33.2489 -85.5317 67° East 495 570 35,000  Level Atlanta Center
Tue 10:40:16 AM 33.3047 -85.3836 66° East 484 557 35,000  Level Atlanta Center
Tue 10:41:16 AM 33.3544 -85.2300 69° East 490 564 35,000  Level Atlanta Center
Tue 10:42:16 AM 33.4081 -85.0764 67° East 490 564 35,000  Level Atlanta Center
Tue 10:43:16 AM 33.4633 -84.9128 68° East 490 564 35,000  Level Atlanta Center
Tue 10:44:16 AM 33.5167 -84.7614 67° East 490 564 35,000  Level Atlanta Center
Tue 10:45:16 AM 33.5675 -84.6097 68° East 490 564 35,000  Level Atlanta Center
Tue 10:46:16 AM 33.6078 -84.4753 70° East 485 558 35,000  Level Atlanta Center
Tue 10:47:16 AM 33.6561 -84.3233 69° East 480 552 35,000  Level Atlanta Center
Tue 10:48:16 AM 33.7067 -84.1511 71° East 487 560 35,000  Level Atlanta Center
Tue 10:49:16 AM 33.7503 -84.0039 70° East 487 560 35,000  Level Atlanta Center
Tue 10:50:16 AM 33.7919 -83.8514 72° East 481 554 35,000  Level Atlanta Center
Tue 10:51:16 AM 33.8356 -83.7011 71° East 476 548 35,000 -100 Level Atlanta Center
Tue 10:52:16 AM 33.8767 -83.5508 72° East 476 548 34,800 -650 Descending Atlanta Center
Tue 10:53:16 AM 33.9200 -83.4006 71° East 471 542 33,700 -1,050 Descending Atlanta Center
Tue 10:54:16 AM 33.9586 -83.2525 73° East 466 536 32,700 -1,050 Descending Atlanta Center
Tue 10:55:16 AM 33.9994 -83.1042 72° East 466 536 31,600 -1,100 Descending Atlanta Center
Tue 10:56:16 AM 34.0400 -82.9558 72° East 459 528 30,500 -1,250 Descending Atlanta Center
Tue 10:57:16 AM 34.0803 -82.8047 72° East 464 534 29,100 -1,650 Descending Atlanta Center
Tue 10:58:16 AM 34.1183 -82.6536 73° East 464 534 27,200 -1,800 Descending Atlanta Center
Tue 10:59:16 AM 34.1564 -82.5225 71° East 457 526 25,500 -1,800 Descending Atlanta Center
Tue 11:00:16 AM 34.1919 -82.3764 74° East 457 526 23,600 -1,950 Descending Atlanta Center
Tue 11:01:16 AM 34.2297 -82.2272 73° East 457 526 21,600 -1,300 Descending Atlanta Center
Tue 11:02:16 AM 34.2944 -82.0978 59° Northeast 457 526 21,000 -750 Descending Atlanta Center
Tue 11:03:16 AM 34.3822 -81.9850 47° Northeast 447 514 20,100 -1,400 Descending Atlanta Center
Tue 11:04:16 AM 34.4703 -81.8769 45° Northeast 447 514 18,200 -2,000 Descending Atlanta Center
Tue 11:05:16 AM 34.5539 -81.7689 47° Northeast 442 509 16,100 -2,250 Descending Atlanta Center
Tue 11:06:16 AM 34.6353 -81.6681 46° Northeast 430 495 13,700 -2,050 Descending Atlanta Center
Tue 11:07:16 AM 34.7108 -81.5750 45° Northeast 397 457 12,000 -900 Descending Atlanta Center
Tue 11:08:16 AM 34.7800 -81.4872 46° Northeast 366 421 11,900 -50 Descending Atlanta Center
Tue 11:09:16 AM 34.8508 -81.3914 48° Northeast 361 415 11,900 50 Level Atlanta Center
Tue 11:10:16 AM 34.9200 -81.3031 46° Northeast 361 415 12,000 -250 Climbing Atlanta Center
Tue 11:11:16 AM 34.9828 -81.2197 47° Northeast 338 389 11,400 -1,250 Descending Atlanta Center
Tue 11:12:16 AM 35.0414 -81.1442 47° Northeast 307 353 9,500 -1,200 Descending Atlanta Center
Tue 11:13:16 AM 35.1044 -81.0761 41° Northeast 302 348 9,000 -400 Descending Atlanta Center
Tue 11:14:16 AM 35.1942 -81.0678 North 292 336 8,700 -1,388 Descending Atlanta Center
Tue 11:15:43 AM 35.3156 -81.0811 355° North 296 341 5,600 -1,957 Descending Atlanta Center
Tue 11:16:37 AM 35.3886 -81.0886 355° North 282 325 4,100 -793 Descending Atlanta Center
Tue 11:17:44 AM 35.4097 -81.0064 72° East 266 306 4,000 -90 Descending Atlanta Center

Login

Don't have an account? Register now (free) for customized features, flight alerts, and more!